sensor_id;sensor_type;location;lat;lon;timestamp;temperature;humidity
32366;DHT22;18837;46.832;16.838;2023-09-30T00:00:46;18.70;90.80
32366;DHT22;18837;46.832;16.838;2023-09-30T00:03:12;18.70;90.80
32366;DHT22;18837;46.832;16.838;2023-09-30T00:05:38;18.70;90.90
32366;DHT22;18837;46.832;16.838;2023-09-30T00:08:07;18.70;90.70
32366;DHT22;18837;46.832;16.838;2023-09-30T00:10:32;18.70;90.80
32366;DHT22;18837;46.832;16.838;2023-09-30T00:12:58;18.70;90.90
32366;DHT22;18837;46.832;16.838;2023-09-30T00:15:26;18.70;90.80
32366;DHT22;18837;46.832;16.838;2023-09-30T00:17:52;18.70;90.80
32366;DHT22;18837;46.832;16.838;2023-09-30T00:20:18;18.70;90.80
32366;DHT22;18837;46.832;16.838;2023-09-30T00:22:43;18.70;90.80
32366;DHT22;18837;46.832;16.838;2023-09-30T00:25:09;18.60;90.70
32366;DHT22;18837;46.832;16.838;2023-09-30T00:27:36;18.60;90.70
32366;DHT22;18837;46.832;16.838;2023-09-30T00:30:02;18.60;90.80
32366;DHT22;18837;46.832;16.838;2023-09-30T00:32:31;18.60;90.60
32366;DHT22;18837;46.832;16.838;2023-09-30T00:34:58;18.60;90.80
32366;DHT22;18837;46.832;16.838;2023-09-30T00:37:24;18.60;90.90
32366;DHT22;18837;46.832;16.838;2023-09-30T00:39:50;18.50;90.60
32366;DHT22;18837;46.832;16.838;2023-09-30T00:42:15;18.50;90.90
32366;DHT22;18837;46.832;16.838;2023-09-30T00:44:41;18.50;90.70
32366;DHT22;18837;46.832;16.838;2023-09-30T00:47:26;18.50;90.70
32366;DHT22;18837;46.832;16.838;2023-09-30T00:50:25;18.50;90.70
32366;DHT22;18837;46.832;16.838;2023-09-30T00:52:57;18.50;90.80
32366;DHT22;18837;46.832;16.838;2023-09-30T00:55:23;18.50;90.70
32366;DHT22;18837;46.832;16.838;2023-09-30T00:57:49;18.40;90.80
32366;DHT22;18837;46.832;16.838;2023-09-30T01:00:16;18.50;90.70
32366;DHT22;18837;46.832;16.838;2023-09-30T01:02:42;18.50;90.90
32366;DHT22;18837;46.832;16.838;2023-09-30T01:05:09;18.50;90.90
32366;DHT22;18837;46.832;16.838;2023-09-30T01:07:35;18.40;90.70
32366;DHT22;18837;46.832;16.838;2023-09-30T01:10:02;18.40;90.80
32366;DHT22;18837;46.832;16.838;2023-09-30T01:12:27;18.40;90.70
32366;DHT22;18837;46.832;16.838;2023-09-30T01:14:59;18.40;90.90
32366;DHT22;18837;46.832;16.838;2023-09-30T01:17:25;18.40;90.80
32366;DHT22;18837;46.832;16.838;2023-09-30T01:19:51;18.40;90.80
32366;DHT22;18837;46.832;16.838;2023-09-30T01:22:28;18.40;90.80
32366;DHT22;18837;46.832;16.838;2023-09-30T01:25:19;18.30;90.70
32366;DHT22;18837;46.832;16.838;2023-09-30T01:27:45;18.30;90.70
32366;DHT22;18837;46.832;16.838;2023-09-30T01:30:11;18.30;90.80
32366;DHT22;18837;46.832;16.838;2023-09-30T01:32:39;18.30;90.80
32366;DHT22;18837;46.832;16.838;2023-09-30T01:35:05;18.30;90.80
32366;DHT22;18837;46.832;16.838;2023-09-30T01:37:31;18.30;90.80
32366;DHT22;18837;46.832;16.838;2023-09-30T01:39:57;18.30;90.60
32366;DHT22;18837;46.832;16.838;2023-09-30T01:42:28;18.30;90.70
32366;DHT22;18837;46.832;16.838;2023-09-30T01:44:53;18.30;90.80
32366;DHT22;18837;46.832;16.838;2023-09-30T01:47:19;18.30;90.70
32366;DHT22;18837;46.832;16.838;2023-09-30T01:49:45;18.20;90.90
32366;DHT22;18837;46.832;16.838;2023-09-30T01:52:11;18.20;90.70
32366;DHT22;18837;46.832;16.838;2023-09-30T01:54:36;18.20;90.70
32366;DHT22;18837;46.832;16.838;2023-09-30T01:57:23;18.20;90.70
32366;DHT22;18837;46.832;16.838;2023-09-30T01:59:52;18.20;90.60
32366;DHT22;18837;46.832;16.838;2023-09-30T02:02:18;18.20;90.80
32366;DHT22;18837;46.832;16.838;2023-09-30T02:04:44;18.20;90.80
32366;DHT22;18837;46.832;16.838;2023-09-30T02:07:09;18.20;90.70
32366;DHT22;18837;46.832;16.838;2023-09-30T02:09:35;18.20;90.90
32366;DHT22;18837;46.832;16.838;2023-09-30T02:12:01;18.20;90.80
32366;DHT22;18837;46.832;16.838;2023-09-30T02:14:27;18.20;90.80
32366;DHT22;18837;46.832;16.838;2023-09-30T02:16:53;18.10;90.60
32366;DHT22;18837;46.832;16.838;2023-09-30T02:19:19;18.10;90.60
32366;DHT22;18837;46.832;16.838;2023-09-30T02:21:47;18.10;90.70
32366;DHT22;18837;46.832;16.838;2023-09-30T02:24:14;18.10;90.80
32366;DHT22;18837;46.832;16.838;2023-09-30T02:26:40;18.10;90.60
32366;DHT22;18837;46.832;16.838;2023-09-30T02:29:06;18.10;90.70
32366;DHT22;18837;46.832;16.838;2023-09-30T02:31:42;18.10;90.80
32366;DHT22;18837;46.832;16.838;2023-09-30T02:34:26;18.00;90.50
32366;DHT22;18837;46.832;16.838;2023-09-30T02:36:53;18.00;90.70
32366;DHT22;18837;46.832;16.838;2023-09-30T02:39:21;18.00;90.60
32366;DHT22;18837;46.832;16.838;2023-09-30T02:41:46;18.00;90.60
32366;DHT22;18837;46.832;16.838;2023-09-30T02:44:15;18.00;90.70
32366;DHT22;18837;46.832;16.838;2023-09-30T02:46:40;18.00;90.70
32366;DHT22;18837;46.832;16.838;2023-09-30T02:49:18;18.00;90.60
32366;DHT22;18837;46.832;16.838;2023-09-30T02:51:44;18.00;90.60
32366;DHT22;18837;46.832;16.838;2023-09-30T02:54:10;18.00;90.70
32366;DHT22;18837;46.832;16.838;2023-09-30T02:56:40;18.00;90.60
32366;DHT22;18837;46.832;16.838;2023-09-30T02:59:06;17.90;90.60
32366;DHT22;18837;46.832;16.838;2023-09-30T03:01:33;17.90;90.60
32366;DHT22;18837;46.832;16.838;2023-09-30T03:03:59;17.90;90.60
32366;DHT22;18837;46.832;16.838;2023-09-30T03:06:30;17.90;90.60
32366;DHT22;18837;46.832;16.838;2023-09-30T03:08:57;17.90;90.60
32366;DHT22;18837;46.832;16.838;2023-09-30T03:11:23;17.90;90.70
32366;DHT22;18837;46.832;16.838;2023-09-30T03:13:49;17.90;90.70
32366;DHT22;18837;46.832;16.838;2023-09-30T03:16:16;17.90;90.60
32366;DHT22;18837;46.832;16.838;2023-09-30T03:18:41;17.90;90.70
32366;DHT22;18837;46.832;16.838;2023-09-30T03:21:13;17.90;90.80
32366;DHT22;18837;46.832;16.838;2023-09-30T03:23:58;17.90;90.70
32366;DHT22;18837;46.832;16.838;2023-09-30T03:26:24;17.90;90.70
32366;DHT22;18837;46.832;16.838;2023-09-30T03:28:50;17.90;90.50
32366;DHT22;18837;46.832;16.838;2023-09-30T03:31:19;17.80;90.60
32366;DHT22;18837;46.832;16.838;2023-09-30T03:33:45;17.80;90.60
32366;DHT22;18837;46.832;16.838;2023-09-30T03:36:13;17.80;90.70
32366;DHT22;18837;46.832;16.838;2023-09-30T03:38:41;17.80;90.70
32366;DHT22;18837;46.832;16.838;2023-09-30T03:41:23;17.80;90.60
32366;DHT22;18837;46.832;16.838;2023-09-30T03:43:58;17.80;90.70
32366;DHT22;18837;46.832;16.838;2023-09-30T03:46:23;17.80;90.60
32366;DHT22;18837;46.832;16.838;2023-09-30T03:48:49;17.80;90.70
32366;DHT22;18837;46.832;16.838;2023-09-30T03:51:15;17.70;90.70
32366;DHT22;18837;46.832;16.838;2023-09-30T03:53:41;17.80;90.70
32366;DHT22;18837;46.832;16.838;2023-09-30T03:56:08;17.70;90.80
32366;DHT22;18837;46.832;16.838;2023-09-30T03:58:45;17.70;90.70
32366;DHT22;18837;46.832;16.838;2023-09-30T04:01:10;17.70;90.70
32366;DHT22;18837;46.832;16.838;2023-09-30T04:03:37;17.70;90.70
32366;DHT22;18837;46.832;16.838;2023-09-30T04:06:05;17.70;90.70
32366;DHT22;18837;46.832;16.838;2023-09-30T04:08:32;17.70;90.70
32366;DHT22;18837;46.832;16.838;2023-09-30T04:11:02;17.70;90.70
32366;DHT22;18837;46.832;16.838;2023-09-30T04:13:34;17.70;90.70
32366;DHT22;18837;46.832;16.838;2023-09-30T04:16:19;17.70;90.70
32366;DHT22;18837;46.832;16.838;2023-09-30T04:18:57;17.70;90.70
32366;DHT22;18837;46.832;16.838;2023-09-30T04:21:22;17.70;90.70
32366;DHT22;18837;46.832;16.838;2023-09-30T04:23:48;17.60;90.70
32366;DHT22;18837;46.832;16.838;2023-09-30T04:26:14;17.60;90.70
32366;DHT22;18837;46.832;16.838;2023-09-30T04:28:40;17.60;90.70
32366;DHT22;18837;46.832;16.838;2023-09-30T04:31:06;17.60;90.70
32366;DHT22;18837;46.832;16.838;2023-09-30T04:33:38;17.60;90.70
32366;DHT22;18837;46.832;16.838;2023-09-30T04:36:06;17.60;90.70
32366;DHT22;18837;46.832;16.838;2023-09-30T04:38:34;17.50;90.80
32366;DHT22;18837;46.832;16.838;2023-09-30T04:41:03;17.60;90.80
32366;DHT22;18837;46.832;16.838;2023-09-30T04:43:29;17.60;90.80
32366;DHT22;18837;46.832;16.838;2023-09-30T04:45:55;17.60;90.70
32366;DHT22;18837;46.832;16.838;2023-09-30T04:48:31;17.50;90.70
32366;DHT22;18837;46.832;16.838;2023-09-30T04:51:07;17.50;90.80
32366;DHT22;18837;46.832;16.838;2023-09-30T04:53:39;17.50;90.70
32366;DHT22;18837;46.832;16.838;2023-09-30T04:56:06;17.50;90.70
32366;DHT22;18837;46.832;16.838;2023-09-30T04:58:32;17.50;90.80
32366;DHT22;18837;46.832;16.838;2023-09-30T05:00:58;17.50;90.70
32366;DHT22;18837;46.832;16.838;2023-09-30T05:03:24;17.50;90.80
32366;DHT22;18837;46.832;16.838;2023-09-30T05:05:51;17.50;90.80
32366;DHT22;18837;46.832;16.838;2023-09-30T05:08:19;17.50;90.80
32366;DHT22;18837;46.832;16.838;2023-09-30T05:10:45;17.50;91.00
32366;DHT22;18837;46.832;16.838;2023-09-30T05:13:11;17.50;90.90
32366;DHT22;18837;46.832;16.838;2023-09-30T05:15:38;17.50;91.00
32366;DHT22;18837;46.832;16.838;2023-09-30T05:18:04;17.50;90.80
32366;DHT22;18837;46.832;16.838;2023-09-30T05:20:30;17.50;90.80
32366;DHT22;18837;46.832;16.838;2023-09-30T05:22:56;17.40;90.90
32366;DHT22;18837;46.832;16.838;2023-09-30T05:25:22;17.40;90.90
32366;DHT22;18837;46.832;16.838;2023-09-30T05:27:52;17.40;90.90
32366;DHT22;18837;46.832;16.838;2023-09-30T05:30:18;17.40;90.90
32366;DHT22;18837;46.832;16.838;2023-09-30T05:32:45;17.40;90.90
32366;DHT22;18837;46.832;16.838;2023-09-30T05:35:12;17.40;90.90
32366;DHT22;18837;46.832;16.838;2023-09-30T05:37:42;17.40;91.00
32366;DHT22;18837;46.832;16.838;2023-09-30T05:40:09;17.40;90.90
32366;DHT22;18837;46.832;16.838;2023-09-30T05:42:45;17.40;90.90
32366;DHT22;18837;46.832;16.838;2023-09-30T05:45:11;17.40;91.00
32366;DHT22;18837;46.832;16.838;2023-09-30T05:47:41;17.40;91.00
32366;DHT22;18837;46.832;16.838;2023-09-30T05:50:07;17.40;90.90
32366;DHT22;18837;46.832;16.838;2023-09-30T05:52:34;17.40;90.90
32366;DHT22;18837;46.832;16.838;2023-09-30T05:55:01;17.40;90.90
32366;DHT22;18837;46.832;16.838;2023-09-30T05:57:28;17.40;91.40
32366;DHT22;18837;46.832;16.838;2023-09-30T05:59:54;17.40;90.90
32366;DHT22;18837;46.832;16.838;2023-09-30T06:02:20;17.30;91.10
32366;DHT22;18837;46.832;16.838;2023-09-30T06:04:45;17.30;90.90
32366;DHT22;18837;46.832;16.838;2023-09-30T06:07:20;17.30;90.90
32366;DHT22;18837;46.832;16.838;2023-09-30T06:09:46;17.30;90.90
32366;DHT22;18837;46.832;16.838;2023-09-30T06:12:15;17.30;91.00
32366;DHT22;18837;46.832;16.838;2023-09-30T06:14:41;17.30;91.00
32366;DHT22;18837;46.832;16.838;2023-09-30T06:17:07;17.40;91.10
32366;DHT22;18837;46.832;16.838;2023-09-30T06:19:33;17.30;91.10
32366;DHT22;18837;46.832;16.838;2023-09-30T06:22:05;17.30;91.10
32366;DHT22;18837;46.832;16.838;2023-09-30T06:24:37;17.30;91.10
32366;DHT22;18837;46.832;16.838;2023-09-30T06:27:15;17.30;91.20
32366;DHT22;18837;46.832;16.838;2023-09-30T06:29:41;17.30;91.10
32366;DHT22;18837;46.832;16.838;2023-09-30T06:32:08;17.30;91.10
32366;DHT22;18837;46.832;16.838;2023-09-30T06:34:34;17.30;91.40
32366;DHT22;18837;46.832;16.838;2023-09-30T06:37:00;17.30;91.10
32366;DHT22;18837;46.832;16.838;2023-09-30T06:39:26;17.30;91.30
32366;DHT22;18837;46.832;16.838;2023-09-30T06:41:52;17.40;91.10
32366;DHT22;18837;46.832;16.838;2023-09-30T06:44:17;17.40;91.10
32366;DHT22;18837;46.832;16.838;2023-09-30T06:46:43;17.40;91.30
32366;DHT22;18837;46.832;16.838;2023-09-30T06:49:09;17.40;91.30
32366;DHT22;18837;46.832;16.838;2023-09-30T06:51:36;17.40;91.40
32366;DHT22;18837;46.832;16.838;2023-09-30T06:54:04;17.40;91.40
32366;DHT22;18837;46.832;16.838;2023-09-30T06:56:40;17.40;91.30
32366;DHT22;18837;46.832;16.838;2023-09-30T06:59:06;17.50;91.30
32366;DHT22;18837;46.832;16.838;2023-09-30T07:01:32;17.50;91.30
32366;DHT22;18837;46.832;16.838;2023-09-30T07:03:58;17.50;91.40
32366;DHT22;18837;46.832;16.838;2023-09-30T07:06:24;17.50;91.30
32366;DHT22;18837;46.832;16.838;2023-09-30T07:08:51;17.50;91.30
32366;DHT22;18837;46.832;16.838;2023-09-30T07:11:44;17.50;91.30
32366;DHT22;18837;46.832;16.838;2023-09-30T07:14:29;17.60;91.30
32366;DHT22;18837;46.832;16.838;2023-09-30T07:17:00;17.60;91.20
32366;DHT22;18837;46.832;16.838;2023-09-30T07:19:26;17.60;91.20
32366;DHT22;18837;46.832;16.838;2023-09-30T07:21:52;17.60;91.30
32366;DHT22;18837;46.832;16.838;2023-09-30T07:24:17;17.70;91.40
32366;DHT22;18837;46.832;16.838;2023-09-30T07:26:43;17.70;91.30
32366;DHT22;18837;46.832;16.838;2023-09-30T07:29:09;17.70;91.40
32366;DHT22;18837;46.832;16.838;2023-09-30T07:31:36;17.70;91.20
32366;DHT22;18837;46.832;16.838;2023-09-30T07:34:02;17.70;91.30
32366;DHT22;18837;46.832;16.838;2023-09-30T07:36:28;17.70;91.20
32366;DHT22;18837;46.832;16.838;2023-09-30T07:38:54;17.70;91.30
32366;DHT22;18837;46.832;16.838;2023-09-30T07:41:20;17.80;91.30
32366;DHT22;18837;46.832;16.838;2023-09-30T07:43:46;17.70;91.20
32366;DHT22;18837;46.832;16.838;2023-09-30T07:46:11;17.80;91.50
32366;DHT22;18837;46.832;16.838;2023-09-30T07:48:37;17.80;91.30
32366;DHT22;18837;46.832;16.838;2023-09-30T07:51:05;17.80;91.50
32366;DHT22;18837;46.832;16.838;2023-09-30T07:53:35;17.90;91.30
32366;DHT22;18837;46.832;16.838;2023-09-30T07:56:00;17.90;91.40
32366;DHT22;18837;46.832;16.838;2023-09-30T07:58:26;18.00;91.50
32366;DHT22;18837;46.832;16.838;2023-09-30T08:01:11;18.00;91.30
32366;DHT22;18837;46.832;16.838;2023-09-30T08:03:37;18.00;91.40
32366;DHT22;18837;46.832;16.838;2023-09-30T08:06:03;18.00;91.30
32366;DHT22;18837;46.832;16.838;2023-09-30T08:08:29;18.00;91.20
32366;DHT22;18837;46.832;16.838;2023-09-30T08:10:55;18.10;91.40
32366;DHT22;18837;46.832;16.838;2023-09-30T08:13:24;18.10;91.30
32366;DHT22;18837;46.832;16.838;2023-09-30T08:16:22;18.10;91.20
32366;DHT22;18837;46.832;16.838;2023-09-30T08:19:09;18.10;91.20
32366;DHT22;18837;46.832;16.838;2023-09-30T08:21:50;18.10;91.30
32366;DHT22;18837;46.832;16.838;2023-09-30T08:24:17;18.20;91.30
32366;DHT22;18837;46.832;16.838;2023-09-30T08:26:43;18.10;91.40
32366;DHT22;18837;46.832;16.838;2023-09-30T08:29:09;18.20;91.50
32366;DHT22;18837;46.832;16.838;2023-09-30T08:31:34;18.30;91.60
32366;DHT22;18837;46.832;16.838;2023-09-30T08:34:00;18.30;91.60
32366;DHT22;18837;46.832;16.838;2023-09-30T08:36:29;18.30;91.50
32366;DHT22;18837;46.832;16.838;2023-09-30T08:38:55;18.30;91.40
32366;DHT22;18837;46.832;16.838;2023-09-30T08:41:31;18.40;91.70
32366;DHT22;18837;46.832;16.838;2023-09-30T08:44:04;18.40;91.70
32366;DHT22;18837;46.832;16.838;2023-09-30T08:46:34;18.50;91.50
32366;DHT22;18837;46.832;16.838;2023-09-30T08:49:04;18.60;91.50
32366;DHT22;18837;46.832;16.838;2023-09-30T08:51:59;18.60;91.40
32366;DHT22;18837;46.832;16.838;2023-09-30T08:54:44;18.60;91.70
32366;DHT22;18837;46.832;16.838;2023-09-30T08:57:10;18.70;91.70
32366;DHT22;18837;46.832;16.838;2023-09-30T08:59:36;18.70;91.80
32366;DHT22;18837;46.832;16.838;2023-09-30T09:02:05;18.80;91.80
32366;DHT22;18837;46.832;16.838;2023-09-30T09:04:33;18.80;91.90
32366;DHT22;18837;46.832;16.838;2023-09-30T09:06:59;18.90;92.20
32366;DHT22;18837;46.832;16.838;2023-09-30T09:09:25;18.90;92.20
32366;DHT22;18837;46.832;16.838;2023-09-30T09:12:20;19.00;91.70
32366;DHT22;18837;46.832;16.838;2023-09-30T09:14:46;19.10;91.90
32366;DHT22;18837;46.832;16.838;2023-09-30T09:17:12;19.10;91.80
32366;DHT22;18837;46.832;16.838;2023-09-30T09:19:39;19.10;91.80
32366;DHT22;18837;46.832;16.838;2023-09-30T09:22:05;19.10;91.80
32366;DHT22;18837;46.832;16.838;2023-09-30T09:24:36;19.20;92.30
32366;DHT22;18837;46.832;16.838;2023-09-30T09:27:35;19.10;91.70
32366;DHT22;18837;46.832;16.838;2023-09-30T09:33:00;19.20;92.00
32366;DHT22;18837;46.832;16.838;2023-09-30T09:35:27;19.20;92.10
32366;DHT22;18837;46.832;16.838;2023-09-30T09:37:58;19.20;91.80
32366;DHT22;18837;46.832;16.838;2023-09-30T09:40:27;19.20;91.70
32366;DHT22;18837;46.832;16.838;2023-09-30T09:42:54;19.20;91.60
32366;DHT22;18837;46.832;16.838;2023-09-30T09:45:25;19.20;91.60
32366;DHT22;18837;46.832;16.838;2023-09-30T09:47:52;19.10;91.60
32366;DHT22;18837;46.832;16.838;2023-09-30T09:50:24;19.10;91.50
32366;DHT22;18837;46.832;16.838;2023-09-30T09:52:53;19.20;92.60
32366;DHT22;18837;46.832;16.838;2023-09-30T09:55:25;19.20;92.10
32366;DHT22;18837;46.832;16.838;2023-09-30T09:57:51;19.20;91.60
32366;DHT22;18837;46.832;16.838;2023-09-30T10:00:19;19.20;91.40
32366;DHT22;18837;46.832;16.838;2023-09-30T10:02:47;19.30;91.40
32366;DHT22;18837;46.832;16.838;2023-09-30T10:05:14;19.30;91.10
32366;DHT22;18837;46.832;16.838;2023-09-30T10:08:09;19.30;91.10
32366;DHT22;18837;46.832;16.838;2023-09-30T10:10:37;19.40;91.30
32366;DHT22;18837;46.832;16.838;2023-09-30T10:13:03;19.40;91.00
32366;DHT22;18837;46.832;16.838;2023-09-30T10:18:03;19.50;91.10
32366;DHT22;18837;46.832;16.838;2023-09-30T10:20:34;19.50;91.20
32366;DHT22;18837;46.832;16.838;2023-09-30T10:23:24;19.50;91.00
32366;DHT22;18837;46.832;16.838;2023-09-30T10:25:52;19.50;91.10
32366;DHT22;18837;46.832;16.838;2023-09-30T10:28:36;19.60;91.10
32366;DHT22;18837;46.832;16.838;2023-09-30T10:31:21;19.60;91.50
32366;DHT22;18837;46.832;16.838;2023-09-30T10:36:36;19.60;91.30
32366;DHT22;18837;46.832;16.838;2023-09-30T10:39:11;19.60;91.50
32366;DHT22;18837;46.832;16.838;2023-09-30T10:53:44;19.90;91.50
32366;DHT22;18837;46.832;16.838;2023-09-30T10:56:11;19.90;91.70
32366;DHT22;18837;46.832;16.838;2023-09-30T11:01:06;19.90;91.50
32366;DHT22;18837;46.832;16.838;2023-09-30T11:03:32;19.90;91.50
32366;DHT22;18837;46.832;16.838;2023-09-30T11:05:58;19.90;91.60
32366;DHT22;18837;46.832;16.838;2023-09-30T11:08:28;19.90;91.50
32366;DHT22;18837;46.832;16.838;2023-09-30T11:10:54;19.90;91.60
32366;DHT22;18837;46.832;16.838;2023-09-30T11:13:20;19.90;91.70
32366;DHT22;18837;46.832;16.838;2023-09-30T11:15:46;19.90;91.50
32366;DHT22;18837;46.832;16.838;2023-09-30T11:18:17;20.00;91.50
32366;DHT22;18837;46.832;16.838;2023-09-30T11:20:44;20.00;91.60
32366;DHT22;18837;46.832;16.838;2023-09-30T11:23:13;20.00;91.50
32366;DHT22;18837;46.832;16.838;2023-09-30T11:25:41;20.00;91.00
32366;DHT22;18837;46.832;16.838;2023-09-30T11:28:16;20.00;91.50
32366;DHT22;18837;46.832;16.838;2023-09-30T11:30:59;20.00;91.40
32366;DHT22;18837;46.832;16.838;2023-09-30T11:33:25;20.00;91.30
32366;DHT22;18837;46.832;16.838;2023-09-30T11:36:10;20.00;91.00
32366;DHT22;18837;46.832;16.838;2023-09-30T11:38:36;20.10;91.10
32366;DHT22;18837;46.832;16.838;2023-09-30T11:41:04;20.10;91.60
32366;DHT22;18837;46.832;16.838;2023-09-30T11:43:31;20.10;91.30
32366;DHT22;18837;46.832;16.838;2023-09-30T11:46:08;20.10;91.20
32366;DHT22;18837;46.832;16.838;2023-09-30T11:48:37;20.10;91.00
32366;DHT22;18837;46.832;16.838;2023-09-30T11:54:45;20.20;92.30
32366;DHT22;18837;46.832;16.838;2023-09-30T11:57:14;20.20;92.60
32366;DHT22;18837;46.832;16.838;2023-09-30T11:59:41;20.20;92.80
32366;DHT22;18837;46.832;16.838;2023-09-30T12:02:11;20.30;92.10
32366;DHT22;18837;46.832;16.838;2023-09-30T12:04:37;20.30;92.20
32366;DHT22;18837;46.832;16.838;2023-09-30T12:07:04;20.30;91.60
32366;DHT22;18837;46.832;16.838;2023-09-30T12:09:41;20.30;91.50
32366;DHT22;18837;46.832;16.838;2023-09-30T12:12:07;20.30;91.90
32366;DHT22;18837;46.832;16.838;2023-09-30T12:14:37;20.30;92.60
32366;DHT22;18837;46.832;16.838;2023-09-30T12:17:03;20.30;93.20
32366;DHT22;18837;46.832;16.838;2023-09-30T12:19:29;20.30;92.80
32366;DHT22;18837;46.832;16.838;2023-09-30T12:21:55;20.30;91.60
32366;DHT22;18837;46.832;16.838;2023-09-30T12:24:33;20.30;91.20
32366;DHT22;18837;46.832;16.838;2023-09-30T12:30:16;20.40;91.90
32366;DHT22;18837;46.832;16.838;2023-09-30T12:32:45;20.30;92.30
32366;DHT22;18837;46.832;16.838;2023-09-30T12:35:11;20.40;91.70
32366;DHT22;18837;46.832;16.838;2023-09-30T12:37:38;20.40;91.30
32366;DHT22;18837;46.832;16.838;2023-09-30T12:40:06;20.30;91.20
32366;DHT22;18837;46.832;16.838;2023-09-30T12:42:59;20.40;91.40
32366;DHT22;18837;46.832;16.838;2023-09-30T12:45:25;20.30;92.10
32366;DHT22;18837;46.832;16.838;2023-09-30T12:47:51;20.40;92.50
32366;DHT22;18837;46.832;16.838;2023-09-30T12:50:18;20.40;92.00
32366;DHT22;18837;46.832;16.838;2023-09-30T12:52:43;20.40;92.20
32366;DHT22;18837;46.832;16.838;2023-09-30T12:55:10;20.40;92.70
32366;DHT22;18837;46.832;16.838;2023-09-30T12:57:36;20.40;93.00
32366;DHT22;18837;46.832;16.838;2023-09-30T13:03:39;20.40;92.90
32366;DHT22;18837;46.832;16.838;2023-09-30T13:06:05;20.40;92.70
32366;DHT22;18837;46.832;16.838;2023-09-30T13:08:31;20.50;92.50
32366;DHT22;18837;46.832;16.838;2023-09-30T13:11:00;20.40;92.90
32366;DHT22;18837;46.832;16.838;2023-09-30T13:13:28;20.50;92.90
32366;DHT22;18837;46.832;16.838;2023-09-30T13:15:57;20.50;92.50
32366;DHT22;18837;46.832;16.838;2023-09-30T13:18:35;20.50;91.90
32366;DHT22;18837;46.832;16.838;2023-09-30T13:21:02;20.50;92.10
32366;DHT22;18837;46.832;16.838;2023-09-30T13:23:29;20.50;92.00
32366;DHT22;18837;46.832;16.838;2023-09-30T13:25:55;20.60;92.20
32366;DHT22;18837;46.832;16.838;2023-09-30T13:28:21;20.70;92.90
32366;DHT22;18837;46.832;16.838;2023-09-30T13:30:47;20.70;93.40
32366;DHT22;18837;46.832;16.838;2023-09-30T13:33:29;20.70;93.50
32366;DHT22;18837;46.832;16.838;2023-09-30T13:39:03;20.80;91.90
32366;DHT22;18837;46.832;16.838;2023-09-30T13:41:34;20.80;91.50
32366;DHT22;18837;46.832;16.838;2023-09-30T13:44:00;20.80;91.90
32366;DHT22;18837;46.832;16.838;2023-09-30T13:46:26;20.80;92.50
32366;DHT22;18837;46.832;16.838;2023-09-30T13:48:53;20.80;92.00
32366;DHT22;18837;46.832;16.838;2023-09-30T13:51:19;20.90;91.70
32366;DHT22;18837;46.832;16.838;2023-09-30T13:53:50;20.80;91.80
32366;DHT22;18837;46.832;16.838;2023-09-30T13:56:16;20.80;92.50
32366;DHT22;18837;46.832;16.838;2023-09-30T13:58:42;20.80;93.00
32366;DHT22;18837;46.832;16.838;2023-09-30T14:01:08;20.80;92.40
32366;DHT22;18837;46.832;16.838;2023-09-30T14:03:34;20.80;92.10
32366;DHT22;18837;46.832;16.838;2023-09-30T14:05:59;20.90;92.20
32366;DHT22;18837;46.832;16.838;2023-09-30T14:09:03;20.80;92.50
32366;DHT22;18837;46.832;16.838;2023-09-30T14:11:48;20.80;92.30
32366;DHT22;18837;46.832;16.838;2023-09-30T14:14:14;20.90;92.00
32366;DHT22;18837;46.832;16.838;2023-09-30T14:16:40;20.80;92.10
32366;DHT22;18837;46.832;16.838;2023-09-30T14:19:05;20.90;92.50
32366;DHT22;18837;46.832;16.838;2023-09-30T14:21:31;20.90;92.80
32366;DHT22;18837;46.832;16.838;2023-09-30T14:23:58;20.90;92.90
32366;DHT22;18837;46.832;16.838;2023-09-30T14:26:29;20.90;93.20
32366;DHT22;18837;46.832;16.838;2023-09-30T14:28:55;20.90;93.30
32366;DHT22;18837;46.832;16.838;2023-09-30T14:31:21;20.90;93.00
32366;DHT22;18837;46.832;16.838;2023-09-30T14:33:47;20.90;93.10
32366;DHT22;18837;46.832;16.838;2023-09-30T14:36:12;20.90;92.90
32366;DHT22;18837;46.832;16.838;2023-09-30T14:38:38;20.90;92.80
32366;DHT22;18837;46.832;16.838;2023-09-30T14:41:07;20.90;92.70
32366;DHT22;18837;46.832;16.838;2023-09-30T14:43:56;20.90;92.90
32366;DHT22;18837;46.832;16.838;2023-09-30T14:46:39;20.90;93.00
32366;DHT22;18837;46.832;16.838;2023-09-30T14:49:05;20.90;92.80
32366;DHT22;18837;46.832;16.838;2023-09-30T14:51:35;20.90;92.90
32366;DHT22;18837;46.832;16.838;2023-09-30T14:54:02;21.00;92.80
32366;DHT22;18837;46.832;16.838;2023-09-30T14:56:28;20.90;92.70
32366;DHT22;18837;46.832;16.838;2023-09-30T14:58:53;20.90;92.80
32366;DHT22;18837;46.832;16.838;2023-09-30T15:01:25;20.90;92.80
32366;DHT22;18837;46.832;16.838;2023-09-30T15:03:51;20.80;92.80
32366;DHT22;18837;46.832;16.838;2023-09-30T15:06:17;20.80;92.80
32366;DHT22;18837;46.832;16.838;2023-09-30T15:08:43;20.80;92.70
32366;DHT22;18837;46.832;16.838;2023-09-30T15:11:13;20.80;92.60
32366;DHT22;18837;46.832;16.838;2023-09-30T15:13:42;20.80;92.50
32366;DHT22;18837;46.832;16.838;2023-09-30T15:16:28;20.80;92.50
32366;DHT22;18837;46.832;16.838;2023-09-30T15:19:16;20.80;92.50
32366;DHT22;18837;46.832;16.838;2023-09-30T15:21:58;20.80;92.40
32366;DHT22;18837;46.832;16.838;2023-09-30T15:24:24;20.70;92.20
32366;DHT22;18837;46.832;16.838;2023-09-30T15:26:50;20.80;92.40
32366;DHT22;18837;46.832;16.838;2023-09-30T15:29:15;20.80;92.30
32366;DHT22;18837;46.832;16.838;2023-09-30T15:31:41;20.70;92.20
32366;DHT22;18837;46.832;16.838;2023-09-30T15:34:07;20.70;92.20
32366;DHT22;18837;46.832;16.838;2023-09-30T15:36:38;20.70;92.10
32366;DHT22;18837;46.832;16.838;2023-09-30T15:39:04;20.70;92.40
32366;DHT22;18837;46.832;16.838;2023-09-30T15:41:30;20.70;92.10
32366;DHT22;18837;46.832;16.838;2023-09-30T15:43:58;20.70;92.10
32366;DHT22;18837;46.832;16.838;2023-09-30T15:46:26;20.70;91.90
32366;DHT22;18837;46.832;16.838;2023-09-30T15:48:52;20.70;91.80
32366;DHT22;18837;46.832;16.838;2023-09-30T15:58:06;20.60;92.00
32366;DHT22;18837;46.832;16.838;2023-09-30T16:00:36;20.60;91.60
32366;DHT22;18837;46.832;16.838;2023-09-30T16:03:04;20.50;91.70
32366;DHT22;18837;46.832;16.838;2023-09-30T16:05:32;20.50;91.70
32366;DHT22;18837;46.832;16.838;2023-09-30T16:07:58;20.50;91.70
32366;DHT22;18837;46.832;16.838;2023-09-30T16:10:43;20.50;91.70